Time;durP1;ratioP1;P1;durP2;ratioP2;P2;SDS_P1;SDS_P2;PMS_P1;PMS_P2;Temp;Humidity;BMP_temperature;BMP_pressure;BME280_temperature;BME280_humidity;BME280_pressure;Samples;Min_cycle;Max_cycle;Signal;HPM_P1;HPM_P2
2022/03/20 00:00:29;;;;;;;;;;;;;;;13.52;44.79;102972.81;4922287;28;97927;-67
2022/03/20 00:02:55;;;;;;;;;;;;;;;13.50;44.78;102977.63;4937091;28;126029;-70
2022/03/20 00:05:22;;;;;;;;;;;;;;;13.49;44.86;102963.25;4940317;28;98458;-67
2022/03/20 00:07:48;;;;;;;;;;;;;;;13.47;44.85;102962.66;4940580;28;104047;-65
2022/03/20 00:10:14;;;;;;;;;;;;;;;13.45;44.88;102959.34;4940800;28;117982;-68
2022/03/20 00:12:40;;;;;;;;;;;;;;;13.44;44.77;102964.97;4922870;28;99796;-65
2022/03/20 00:15:06;;;;;;;;;;;;;;;13.42;44.68;102967.09;4939611;28;99262;-68
2022/03/20 00:17:32;;;;;;;;;;;;;;;13.40;44.66;102961.91;4939049;28;124312;-68
2022/03/20 00:19:58;;;;;;;;;;;;;;;13.39;44.71;102956.72;4939517;28;114221;-69
2022/03/20 00:22:25;;;;;;;;;;;;;;;13.35;44.81;102956.34;4940355;28;98758;-64
2022/03/20 00:24:51;;;;;;;;;;;;;;;13.35;44.78;102958.22;4935731;28;100650;-68
2022/03/20 00:27:17;;;;;;;;;;;;;;;13.33;44.59;102958.44;4937925;28;127454;-65
2022/03/20 00:29:43;;;;;;;;;;;;;;;13.31;44.76;102957.84;4938746;28;108789;-69
2022/03/20 00:32:10;;;;;;;;;;;;;;;13.30;44.76;102953.47;4922280;28;99030;-64
2022/03/20 00:34:36;;;;;;;;;;;;;;;13.27;44.74;102957.47;4940885;28;98407;-70
2022/03/20 00:37:03;;;;;;;;;;;;;;;13.27;44.89;102959.34;4940217;28;127072;-64
2022/03/20 00:39:28;;;;;;;;;;;;;;;13.25;44.71;102954.16;4939212;28;116135;-64
2022/03/20 00:41:55;;;;;;;;;;;;;;;13.24;44.77;102954.38;4940547;28;128016;-64
2022/03/20 00:44:21;;;;;;;;;;;;;;;13.22;44.83;102957.28;4908691;28;100398;-69
2022/03/20 00:46:48;;;;;;;;;;;;;;;13.21;44.41;102952.09;4942742;28;126713;-65
2022/03/20 00:49:15;;;;;;;;;;;;;;;13.20;44.75;102951.28;4943856;28;97899;-69
2022/03/20 00:51:41;;;;;;;;;;;;;;;13.19;44.79;102951.47;4924878;28;124749;-64
2022/03/20 00:54:07;;;;;;;;;;;;;;;13.18;44.71;102957.97;4924494;28;126853;-67
2022/03/20 00:56:32;;;;;;;;;;;;;;;13.16;44.56;102960.03;4942745;28;127717;-69
2022/03/20 00:58:58;;;;;;;;;;;;;;;13.14;44.71;102960.28;4943439;28;117476;-65
2022/03/20 01:01:26;;;;;;;;;;;;;;;13.14;44.51;102954.03;4942831;28;128940;-64
2022/03/20 01:03:52;;;;;;;;;;;;;;;13.12;44.80;102954.25;4925502;28;98926;-64
2022/03/20 01:06:20;;;;;;;;;;;;;;;13.10;44.61;102955.56;4943409;28;97960;-64
2022/03/20 01:08:45;;;;;;;;;;;;;;;13.08;44.60;102958.47;4943358;28;97829;-64
2022/03/20 01:11:12;;;;;;;;;;;;;;;13.05;44.93;102945.41;4941998;28;128010;-64
2022/03/20 01:13:38;;;;;;;;;;;;;;;13.05;44.60;102949.94;4925061;28;98418;-69
2022/03/20 01:16:06;;;;;;;;;;;;;;;13.03;44.53;102952.91;4942251;28;128105;-68
2022/03/20 01:18:32;;;;;;;;;;;;;;;13.02;44.55;102946.66;4921855;28;97895;-67
2022/03/20 01:20:58;;;;;;;;;;;;;;;12.99;44.62;102947.09;4904659;28;128202;-67
2022/03/20 01:23:23;;;;;;;;;;;;;;;12.98;44.65;102948.16;4923961;28;98594;-67
2022/03/20 01:25:50;;;;;;;;;;;;;;;12.98;44.57;102941.91;4933630;28;126670;-64
2022/03/20 01:28:17;;;;;;;;;;;;;;;12.95;44.65;102943.19;4943320;28;97749;-69
2022/03/20 01:30:43;;;;;;;;;;;;;;;12.94;44.66;102946.13;4924499;28;98759;-64
2022/03/20 01:33:09;;;;;;;;;;;;;;;12.92;44.62;102940.09;4925309;28;98212;-68
2022/03/20 01:35:35;;;;;;;;;;;;;;;12.90;44.20;102940.34;4904000;28;112896;-64
2022/03/20 01:38:05;;;;;;;;;;;;;;;12.90;44.70;102939.50;4905999;28;97959;-64
2022/03/20 01:40:31;;;;;;;;;;;;;;;12.88;44.76;102933.47;4918437;28;100635;-66
2022/03/20 01:42:56;;;;;;;;;;;;;;;12.87;44.56;102948.06;4920476;28;124361;-69
2022/03/20 01:45:23;;;;;;;;;;;;;;;12.85;44.72;102944.75;4930013;28;126834;-64
2022/03/20 01:47:49;;;;;;;;;;;;;;;12.84;44.71;102940.38;4943202;28;111312;-64
2022/03/20 01:50:16;;;;;;;;;;;;;;;12.82;44.74;102932.50;4942002;28;99252;-65
2022/03/20 01:52:46;;;;;;;;;;;;;;;12.80;44.71;102937.28;4941902;28;111993;-68
2022/03/20 01:55:13;;;;;;;;;;;;;;;12.80;44.75;102933.75;4923257;28;116176;-64
2022/03/20 01:57:39;;;;;;;;;;;;;;;12.77;44.83;102933.16;4942476;28;108950;-69
2022/03/20 02:00:08;;;;;;;;;;;;;;;12.76;44.58;102930.66;4941517;28;107358;-69
2022/03/20 02:02:34;;;;;;;;;;;;;;;12.74;44.57;102930.06;4942817;28;98716;-69
2022/03/20 02:05:01;;;;;;;;;;;;;;;12.73;44.64;102923.00;4941517;28;127902;-64
2022/03/20 02:07:27;;;;;;;;;;;;;;;12.72;44.52;102933.00;4943736;28;97762;-68
2022/03/20 02:09:53;;;;;;;;;;;;;;;12.70;44.50;102926.97;4940697;28;127170;-68
2022/03/20 02:12:19;;;;;;;;;;;;;;;12.69;44.53;102922.63;4941800;28;99047;-68
2022/03/20 02:14:45;;;;;;;;;;;;;;;12.68;44.34;102929.06;4941989;28;98115;-64
2022/03/20 02:17:11;;;;;;;;;;;;;;;12.65;44.56;102921.38;4941389;28;116429;-64
2022/03/20 02:19:41;;;;;;;;;;;;;;;12.65;44.60;102920.56;4941337;28;98998;-64
2022/03/20 02:22:07;;;;;;;;;;;;;;;12.63;44.65;102922.69;4920516;28;98296;-65
2022/03/20 02:24:41;;;;;;;;;;;;;;;12.61;44.50;102914.75;4921304;28;127818;-69
2022/03/20 02:27:19;;;;;;;;;;;;;;;12.60;44.57;102915.00;4923545;28;98049;-64
2022/03/20 02:29:47;;;;;;;;;;;;;;;12.59;44.51;102911.47;4923816;28;99510;-69
2022/03/20 02:32:16;;;;;;;;;;;;;;;12.57;44.51;102907.31;4941568;28;98497;-69
2022/03/20 02:34:42;;;;;;;;;;;;;;;12.56;44.61;102908.38;4923423;28;98417;-67
2022/03/20 02:37:08;;;;;;;;;;;;;;;12.54;44.56;102908.59;4942539;28;98685;-64
2022/03/20 02:39:34;;;;;;;;;;;;;;;12.52;44.58;102908.00;4941828;28;99414;-64
2022/03/20 02:42:02;;;;;;;;;;;;;;;12.51;44.45;102909.88;4940515;28;128055;-64
2022/03/20 02:44:46;;;;;;;;;;;;;;;12.49;44.64;102909.25;4923412;28;98507;-69
2022/03/20 02:47:12;;;;;;;;;;;;;;;12.48;44.58;102914.88;4941596;28;98272;-69
2022/03/20 02:49:38;;;;;;;;;;;;;;;12.48;44.71;102913.00;4941147;28;128197;-64
2022/03/20 02:52:05;;;;;;;;;;;;;;;12.46;44.68;102911.59;4940883;28;128122;-64
2022/03/20 02:54:31;;;;;;;;;;;;;;;12.44;44.78;102903.69;4938826;28;98402;-64
2022/03/20 02:56:57;;;;;;;;;;;;;;;12.43;44.60;102903.91;4941445;28;98125;-68
2022/03/20 02:59:23;;;;;;;;;;;;;;;12.42;44.44;102904.97;4940296;28;126932;-69
2022/03/20 03:01:49;;;;;;;;;;;;;;;12.41;44.51;102906.00;4940492;28;126487;-69
2022/03/20 03:04:15;;;;;;;;;;;;;;;12.40;44.60;102907.88;4939894;28;126790;-64
2022/03/20 03:06:41;;;;;;;;;;;;;;;12.38;44.59;102909.13;4941280;28;97833;-65
2022/03/20 03:11:51;;;;;;;;;;;;;;;12.35;44.41;102905.03;4941056;28;98254;-64
2022/03/20 03:17:02;;;;;;;;;;;;;;;12.33;44.56;102903.56;4903289;28;98744;-69
2022/03/20 03:19:28;;;;;;;;;;;;;;;12.32;44.58;102902.75;4909514;28;121004;-64
2022/03/20 03:21:54;;;;;;;;;;;;;;;12.30;44.49;102910.25;4940064;28;127497;-64
2022/03/20 03:24:20;;;;;;;;;;;;;;;12.28;44.89;102905.06;4940913;28;98126;-68
2022/03/20 03:26:46;;;;;;;;;;;;;;;12.27;44.75;102903.41;4940176;28;117881;-68
2022/03/20 03:29:11;;;;;;;;;;;;;;;12.26;44.67;102901.75;4940104;28;129152;-64
2022/03/20 03:31:37;;;;;;;;;;;;;;;12.25;44.63;102897.38;4913044;28;127309;-64
2022/03/20 03:36:48;;;;;;;;;;;;;;;12.24;44.81;102900.31;4901870;28;97900;-64
2022/03/20 03:39:14;;;;;;;;;;;;;;;12.23;44.70;102895.97;4900696;28;127763;-69
2022/03/20 03:41:40;;;;;;;;;;;;;;;12.21;44.74;102906.97;4902458;28;98230;-67
2022/03/20 03:44:07;;;;;;;;;;;;;;;12.20;44.69;102904.50;4900181;28;98092;-64
2022/03/20 03:46:32;;;;;;;;;;;;;;;12.20;44.76;102907.22;4901942;28;98937;-64
2022/03/20 03:48:58;;;;;;;;;;;;;;;12.19;44.72;102905.56;4902501;28;118705;-68
2022/03/20 03:51:24;;;;;;;;;;;;;;;12.18;44.76;102906.59;4901852;28;99116;-63
2022/03/20 03:53:51;;;;;;;;;;;;;;;12.17;44.69;102905.75;4899255;28;126832;-64
2022/03/20 03:56:19;;;;;;;;;;;;;;;12.15;44.59;102899.75;4901777;28;98304;-64
2022/03/20 03:58:45;;;;;;;;;;;;;;;12.14;44.89;102899.97;4901949;28;98459;-69
2022/03/20 04:01:11;;;;;;;;;;;;;;;12.13;44.75;102896.44;4900682;28;128142;-68
2022/03/20 04:03:36;;;;;;;;;;;;;;;12.12;44.75;102908.31;4901005;28;126815;-63
2022/03/20 04:06:04;;;;;;;;;;;;;;;12.11;44.55;102901.25;4901075;28;115969;-64
2022/03/20 04:08:30;;;;;;;;;;;;;;;12.09;44.51;102900.63;4901575;28;98323;-63
2022/03/20 04:10:56;;;;;;;;;;;;;;;12.08;44.80;102898.97;4902254;28;98794;-69
2022/03/20 04:13:22;;;;;;;;;;;;;;;12.06;44.77;102898.34;4882608;28;128961;-67
2022/03/20 04:15:48;;;;;;;;;;;;;;;12.05;44.94;102899.41;4900885;28;117684;-64
2022/03/20 04:18:15;;;;;;;;;;;;;;;12.04;44.79;102895.06;4900270;28;127884;-64
2022/03/20 04:20:43;;;;;;;;;;;;;;;12.03;44.59;102902.34;4898966;28;97900;-64
2022/03/20 04:25:54;;;;;;;;;;;;;;;11.99;44.82;102900.28;4898784;28;98752;-68
2022/03/20 04:28:21;;;;;;;;;;;;;;;11.99;44.96;102900.28;4898507;28;129089;-64
2022/03/20 04:30:48;;;;;;;;;;;;;;;11.97;45.04;102907.78;4913837;28;98452;-69
2022/03/20 04:33:14;;;;;;;;;;;;;;;11.95;44.42;102907.19;4940698;28;98214;-70
2022/03/20 04:35:40;;;;;;;;;;;;;;;11.93;44.81;102906.56;4939504;28;117552;-69
2022/03/20 04:38:06;;;;;;;;;;;;;;;11.93;45.05;102914.66;4938475;28;127992;-68
2022/03/20 04:40:32;;;;;;;;;;;;;;;11.91;45.08;102920.31;4939536;28;126999;-64
2022/03/20 04:42:59;;;;;;;;;;;;;;;11.91;44.97;102922.19;4940016;28;116425;-69
2022/03/20 04:45:26;;;;;;;;;;;;;;;11.89;45.19;102925.06;4921621;28;98089;-68
2022/03/20 04:58:50;;;;;;;;;;;;;;;11.82;45.05;102918.84;4937315;28;98157;-70
2022/03/20 05:01:16;;;;;;;;;;;;;;;11.80;45.07;102916.38;4939133;28;125941;-68
2022/03/20 05:03:42;;;;;;;;;;;;;;;11.79;44.95;102912.03;4939012;28;127821;-64
2022/03/20 05:06:08;;;;;;;;;;;;;;;11.79;45.02;102913.91;4940056;28;103138;-64
2022/03/20 05:08:37;;;;;;;;;;;;;;;11.77;44.97;102918.69;4938922;28;128014;-70
2022/03/20 05:13:48;;;;;;;;;;;;;;;11.76;44.98;102919.72;4936629;28;97850;-64
2022/03/20 05:16:14;;;;;;;;;;;;;;;11.77;44.74;102932.19;4939741;28;98318;-64
2022/03/20 05:18:40;;;;;;;;;;;;;;;11.75;45.15;102934.25;4939235;28;128209;-64
2022/03/20 05:21:05;;;;;;;;;;;;;;;11.75;44.74;102936.97;4937904;28;127699;-68
2022/03/20 05:23:33;;;;;;;;;;;;;;;11.75;44.96;102931.56;4938574;28;128238;-68
2022/03/20 05:25:59;;;;;;;;;;;;;;;11.75;44.65;102934.25;4938845;28;98378;-64
2022/03/20 05:28:24;;;;;;;;;;;;;;;11.76;44.96;102928.66;4922185;28;127298;-69
2022/03/20 05:30:51;;;;;;;;;;;;;;;11.77;45.22;102934.88;4907189;28;128029;-63
2022/03/20 05:33:17;;;;;;;;;;;;;;;11.77;44.86;102940.28;4925258;28;98380;-64
2022/03/20 05:35:45;;;;;;;;;;;;;;;11.78;45.17;102940.06;4923159;28;117682;-64
2022/03/20 05:38:11;;;;;;;;;;;;;;;11.80;44.76;102948.81;4943005;28;98873;-64
2022/03/20 05:40:38;;;;;;;;;;;;;;;11.83;44.79;102946.69;4907421;28;98206;-64
2022/03/20 05:43:03;;;;;;;;;;;;;;;11.84;44.67;102945.69;4923866;28;97933;-68
2022/03/20 05:45:31;;;;;;;;;;;;;;;11.85;44.75;102941.94;4942865;28;98092;-69
2022/03/20 05:47:57;;;;;;;;;;;;;;;11.88;44.65;102942.34;4924827;28;98384;-69
2022/03/20 05:50:25;;;;;;;;;;;;;;;11.92;44.73;102945.44;4904108;28;122963;-69
2022/03/20 05:52:52;;;;;;;;;;;;;;;11.94;44.94;102946.03;4922709;28;98089;-64
2022/03/20 05:55:18;;;;;;;;;;;;;;;11.98;44.62;102949.97;4931392;28;98224;-68
2022/03/20 06:00:42;;;;;;;;;;;;;;;12.07;45.05;102955.97;4922819;28;98245;-64
2022/03/20 06:03:11;;;;;;;;;;;;;;;12.12;44.83;102958.84;4925689;28;98228;-69
2022/03/20 06:05:38;;;;;;;;;;;;;;;12.17;45.02;102959.00;4942356;28;97942;-64
2022/03/20 06:08:05;;;;;;;;;;;;;;;12.19;44.84;102960.47;4942784;28;98630;-64
2022/03/20 06:10:32;;;;;;;;;;;;;;;12.25;45.13;102956.03;4941224;28;98848;-64
2022/03/20 06:12:58;;;;;;;;;;;;;;;12.30;44.96;102953.53;4942887;28;97900;-64
2022/03/20 06:15:24;;;;;;;;;;;;;;;12.36;44.91;102959.94;4942211;28;101334;-64
2022/03/20 06:17:50;;;;;;;;;;;;;;;12.43;44.98;102958.00;4942646;28;100565;-68
2022/03/20 06:20:17;;;;;;;;;;;;;;;12.49;44.68;102962.53;4942043;28;116609;-69
2022/03/20 06:22:44;;;;;;;;;;;;;;;12.55;44.95;102952.72;4942593;28;98632;-63
2022/03/20 06:25:11;;;;;;;;;;;;;;;12.61;44.88;102960.75;4923807;28;98068;-63
2022/03/20 06:27:53;;;;;;;;;;;;;;;12.68;44.90;102958.84;4940646;28;100436;-69
2022/03/20 06:30:19;;;;;;;;;;;;;;;12.74;44.85;102960.66;4942082;28;98320;-68
2022/03/20 06:32:46;;;;;;;;;;;;;;;12.80;44.83;102961.66;4941951;28;116612;-63
2022/03/20 06:35:12;;;;;;;;;;;;;;;12.88;44.93;102969.47;4923932;28;98098;-69
2022/03/20 06:37:39;;;;;;;;;;;;;;;12.94;44.80;102967.78;4941557;28;99256;-63
2022/03/20 06:40:06;;;;;;;;;;;;;;;13.02;44.82;102967.50;4941114;28;98332;-63
2022/03/20 06:42:32;;;;;;;;;;;;;;;13.10;45.13;102972.63;4941607;28;123253;-63
2022/03/20 06:44:59;;;;;;;;;;;;;;;13.16;44.91;102979.84;4942122;28;98153;-63
2022/03/20 06:47:26;;;;;;;;;;;;;;;13.30;44.93;102971.63;4922727;28;99306;-63
2022/03/20 06:49:53;;;;;;;;;;;;;;;13.49;44.65;102971.38;4941560;28;98870;-63
2022/03/20 06:52:22;;;;;;;;;;;;;;;13.52;44.81;102972.81;4941846;28;98630;-69
2022/03/20 06:54:48;;;;;;;;;;;;;;;13.68;44.79;102976.81;4941914;28;98105;-63
2022/03/20 06:57:18;;;;;;;;;;;;;;;13.72;44.89;102980.72;4941204;28;98243;-68
2022/03/20 06:59:44;;;;;;;;;;;;;;;13.80;44.71;102980.41;4907242;28;100370;-64
2022/03/20 07:02:10;;;;;;;;;;;;;;;13.83;44.90;102982.63;4922771;28;98073;-63
2022/03/20 07:04:36;;;;;;;;;;;;;;;13.88;45.02;102990.09;4920420;28;118540;-64
2022/03/20 07:07:02;;;;;;;;;;;;;;;13.94;44.96;102987.28;4914562;28;99541;-68
2022/03/20 07:09:28;;;;;;;;;;;;;;;14.02;44.84;102985.31;4936775;28;123330;-64
2022/03/20 07:11:54;;;;;;;;;;;;;;;14.07;45.15;102985.44;4917831;28;104773;-64
2022/03/20 07:14:20;;;;;;;;;;;;;;;14.13;45.13;102985.38;4914502;28;116381;-68
2022/03/20 07:16:46;;;;;;;;;;;;;;;14.20;45.03;102983.38;4938144;28;98477;-68
2022/03/20 07:19:12;;;;;;;;;;;;;;;14.31;44.78;102983.66;4926175;28;128710;-64
2022/03/20 07:21:38;;;;;;;;;;;;;;;14.42;44.93;102982.84;4930390;28;127827;-68
2022/03/20 07:24:04;;;;;;;;;;;;;;;14.48;45.11;102988.19;4936465;28;98184;-70
2022/03/20 07:29:29;;;;;;;;;;;;;;;14.64;44.87;102989.41;4934554;28;98180;-64
2022/03/20 07:31:57;;;;;;;;;;;;;;;14.76;45.28;102984.00;4937473;28;98096;-68
2022/03/20 07:34:23;;;;;;;;;;;;;;;14.87;45.07;102979.66;4937994;28;97863;-64
2022/03/20 07:36:50;;;;;;;;;;;;;;;14.98;44.99;102976.94;4934703;28;112765;-64
2022/03/20 07:39:16;;;;;;;;;;;;;;;15.13;45.07;102979.19;4937846;28;98245;-64
2022/03/20 07:41:42;;;;;;;;;;;;;;;15.34;44.69;102985.06;4931880;28;122968;-64
2022/03/20 07:44:08;;;;;;;;;;;;;;;15.53;44.82;102986.56;4937117;28;117967;-70
2022/03/20 07:46:36;;;;;;;;;;;;;;;15.74;44.83;102973.41;4937318;28;98424;-64
2022/03/20 07:49:02;;;;;;;;;;;;;;;16.02;44.53;102986.19;4937472;28;98306;-64
2022/03/20 07:51:30;;;;;;;;;;;;;;;16.30;44.37;102986.16;4937085;28;98231;-69
2022/03/20 07:53:56;;;;;;;;;;;;;;;16.61;44.04;102981.22;4916157;28;97798;-69
2022/03/20 07:56:23;;;;;;;;;;;;;;;16.96;43.79;102974.72;4934851;28;98000;-65
2022/03/20 07:58:49;;;;;;;;;;;;;;;17.29;43.46;102971.94;4936887;28;98145;-64
2022/03/20 08:01:15;;;;;;;;;;;;;;;17.72;43.55;102977.63;4936992;28;98955;-64
2022/03/20 08:03:41;;;;;;;;;;;;;;;18.16;42.97;102978.44;4937589;28;117417;-64
2022/03/20 08:06:08;;;;;;;;;;;;;;;18.65;42.60;102975.56;4936080;28;128184;-64
2022/03/20 08:08:35;;;;;;;;;;;;;;;19.30;41.85;102974.38;4937276;28;98482;-64
2022/03/20 08:11:01;;;;;;;;;;;;;;;20.09;41.34;102977.94;4927728;28;98063;-64
2022/03/20 08:13:31;;;;;;;;;;;;;;;20.91;40.50;102973.31;4934997;28;116744;-64
2022/03/20 08:15:57;;;;;;;;;;;;;;;21.76;39.72;102981.50;4934873;28;99287;-64
2022/03/20 08:18:23;;;;;;;;;;;;;;;22.56;39.16;102983.19;4937179;28;98745;-68
2022/03/20 08:20:49;;;;;;;;;;;;;;;23.42;38.46;102983.38;4937534;28;97931;-70
2022/03/20 08:23:16;;;;;;;;;;;;;;;24.29;38.04;102984.91;4936636;28;117561;-69
2022/03/20 08:25:42;;;;;;;;;;;;;;;25.14;37.22;102979.00;4935658;28;98616;-64
2022/03/20 08:28:10;;;;;;;;;;;;;;;25.99;36.91;102986.91;4932631;28;98390;-64
2022/03/20 08:30:36;;;;;;;;;;;;;;;27.03;36.04;102988.38;4934137;28;98033;-64
2022/03/20 08:33:02;;;;;;;;;;;;;;;28.18;35.19;102989.13;4931386;28;98193;-70
2022/03/20 08:35:28;;;;;;;;;;;;;;;29.25;34.63;102998.47;4935817;28;128762;-64
2022/03/20 08:37:55;;;;;;;;;;;;;;;30.18;33.78;102991.75;4936252;28;98773;-65
2022/03/20 08:40:21;;;;;;;;;;;;;;;30.95;33.33;102982.91;4936965;28;98793;-64
2022/03/20 08:42:54;;;;;;;;;;;;;;;31.47;32.78;102993.34;4937375;28;98850;-64
2022/03/20 08:45:24;;;;;;;;;;;;;;;31.73;32.89;102979.81;4932922;28;98892;-71
2022/03/20 08:47:50;;;;;;;;;;;;;;;31.89;33.19;102979.09;4935757;28;98493;-64
2022/03/20 08:50:16;;;;;;;;;;;;;;;31.78;33.60;102975.97;4936543;28;98329;-64
2022/03/20 08:52:43;;;;;;;;;;;;;;;31.67;33.72;102969.28;4937025;28;97921;-69
2022/03/20 08:55:12;;;;;;;;;;;;;;;31.44;34.51;102966.19;4935160;28;98383;-64
2022/03/20 08:57:42;;;;;;;;;;;;;;;31.24;34.74;102960.41;4933124;28;98680;-64
2022/03/20 09:00:09;;;;;;;;;;;;;;;31.14;35.07;102954.50;4926615;28;98107;-70
2022/03/20 09:02:35;;;;;;;;;;;;;;;31.07;35.27;102960.63;4936779;28;98236;-64
2022/03/20 09:05:01;;;;;;;;;;;;;;;31.02;35.59;102950.56;4939820;28;99656;-64
2022/03/20 09:07:27;;;;;;;;;;;;;;;30.95;35.98;102941.16;4939513;28;98120;-64
2022/03/20 09:09:53;;;;;;;;;;;;;;;30.93;35.97;102940.69;4938206;28;127657;-70
2022/03/20 09:12:18;;;;;;;;;;;;;;;30.89;35.87;102929.47;4939543;28;118071;-70
2022/03/20 09:14:45;;;;;;;;;;;;;;;30.92;36.05;102939.06;4938535;28;126946;-64
2022/03/20 09:19:57;;;;;;;;;;;;;;;31.06;36.19;102925.59;4936570;28;97783;-64
2022/03/20 09:22:25;;;;;;;;;;;;;;;31.15;36.12;102919.91;4940569;28;97841;-70
2022/03/20 09:24:51;;;;;;;;;;;;;;;31.27;36.48;102925.44;4933729;28;98791;-70
2022/03/20 09:27:17;;;;;;;;;;;;;;;31.38;36.38;102917.47;4938961;28;98214;-70
2022/03/20 09:29:43;;;;;;;;;;;;;;;31.49;36.47;102927.75;4938131;28;126559;-71
2022/03/20 09:32:09;;;;;;;;;;;;;;;31.61;36.36;102917.75;4939224;28;115490;-64
2022/03/20 09:34:35;;;;;;;;;;;;;;;31.74;36.23;102916.53;4916298;28;128192;-70
2022/03/20 09:37:01;;;;;;;;;;;;;;;31.85;36.25;102906.53;4939417;28;98348;-70
2022/03/20 09:39:27;;;;;;;;;;;;;;;32.01;35.97;102900.97;4938893;28;98510;-70
2022/03/20 09:41:55;;;;;;;;;;;;;;;32.17;35.91;102901.81;4938493;28;116317;-64
2022/03/20 09:44:24;;;;;;;;;;;;;;;32.36;35.96;102894.72;4928152;28;104848;-64
2022/03/20 09:46:51;;;;;;;;;;;;;;;32.56;35.79;102901.22;4938581;28;98519;-64
2022/03/20 09:49:18;;;;;;;;;;;;;;;32.75;35.80;102890.94;4938620;28;123793;-70
2022/03/20 09:51:44;;;;;;;;;;;;;;;32.93;35.41;102894.19;4939958;28;98113;-70
2022/03/20 09:54:13;;;;;;;;;;;;;;;33.13;35.15;102880.25;4938962;28;126234;-64
2022/03/20 09:56:41;;;;;;;;;;;;;;;33.31;35.51;102875.88;4943727;28;98446;-64
2022/03/20 09:59:07;;;;;;;;;;;;;;;33.52;35.11;102874.72;4939166;28;97909;-65
2022/03/20 10:01:34;;;;;;;;;;;;;;;33.72;34.52;102876.34;4921415;28;98000;-64
2022/03/20 10:04:13;;;;;;;;;;;;;;;33.93;34.31;102878.72;4937642;28;98739;-69
2022/03/20 10:06:40;;;;;;;;;;;;;;;34.17;34.17;102885.97;4925911;28;98670;-65
2022/03/20 10:09:09;;;;;;;;;;;;;;;34.39;34.34;102882.38;4920849;28;98265;-65
2022/03/20 10:11:38;;;;;;;;;;;;;;;34.67;33.76;102875.66;4934149;28;99952;-70
2022/03/20 10:14:13;;;;;;;;;;;;;;;34.99;33.47;102876.13;4936455;28;99169;-70
2022/03/20 10:17:14;;;;;;;;;;;;;;;35.40;33.24;102868.66;4938399;28;99258;-65
2022/03/20 10:19:39;;;;;;;;;;;;;;;36.01;32.58;102871.38;4934002;28;97949;-69
2022/03/20 10:22:07;;;;;;;;;;;;;;;36.51;32.41;102872.63;4938289;28;117454;-70
2022/03/20 10:24:37;;;;;;;;;;;;;;;36.93;31.81;102868.47;4938359;28;98502;-65
2022/03/20 10:27:03;;;;;;;;;;;;;;;37.25;31.51;102859.41;4917653;28;99420;-65
2022/03/20 10:29:32;;;;;;;;;;;;;;;37.48;31.18;102853.50;4937195;28;98012;-70
2022/03/20 10:32:16;;;;;;;;;;;;;;;37.62;31.01;102864.81;4921669;28;99155;-65
2022/03/20 10:34:52;;;;;;;;;;;;;;;37.58;30.00;102861.19;4937786;28;98612;-65
2022/03/20 10:37:19;;;;;;;;;;;;;;;37.54;29.77;102843.50;4935908;28;98180;-70
2022/03/20 10:39:45;;;;;;;;;;;;;;;37.59;29.38;102840.28;4936309;28;127441;-70
2022/03/20 10:42:14;;;;;;;;;;;;;;;37.68;29.31;102848.31;4931240;28;97871;-65
2022/03/20 10:44:40;;;;;;;;;;;;;;;37.75;28.22;102849.16;4906944;28;104230;-65
2022/03/20 10:47:16;;;;;;;;;;;;;;;37.83;28.31;102841.53;4932247;28;98241;-65
2022/03/20 10:49:46;;;;;;;;;;;;;;;37.98;27.78;102829.09;4938153;28;98583;-65
2022/03/20 10:52:19;;;;;;;;;;;;;;;38.18;28.18;102834.34;4928888;28;98105;-69
2022/03/20 10:54:55;;;;;;;;;;;;;;;38.39;27.39;102825.88;4939813;28;98498;-67
2022/03/20 10:57:21;;;;;;;;;;;;;;;38.63;27.13;102815.75;4938044;28;107387;-64
2022/03/20 11:00:11;;;;;;;;;;;;;;;38.94;26.51;102818.91;4937975;28;98017;-66
2022/03/20 11:02:39;;;;;;;;;;;;;;;39.04;25.31;102823.72;4929126;28;98190;-72
2022/03/20 11:05:06;;;;;;;;;;;;;;;38.79;24.39;102807.72;4936733;28;97949;-66
2022/03/20 11:07:32;;;;;;;;;;;;;;;38.42;23.32;102808.19;4938498;28;98702;-66
2022/03/20 11:10:00;;;;;;;;;;;;;;;38.20;22.80;102809.38;4936614;28;98166;-66
2022/03/20 11:12:26;;;;;;;;;;;;;;;38.03;22.56;102808.19;4930072;28;98208;-72
2022/03/20 11:14:54;;;;;;;;;;;;;;;38.01;22.49;102796.56;4936729;28;98189;-66
2022/03/20 11:17:21;;;;;;;;;;;;;;;37.75;21.39;102792.09;4936500;28;98477;-72
2022/03/20 11:19:52;;;;;;;;;;;;;;;37.33;21.11;102773.91;4933634;28;125299;-71
2022/03/20 11:22:20;;;;;;;;;;;;;;;36.98;21.31;102786.69;4936097;28;99448;-72
2022/03/20 11:24:47;;;;;;;;;;;;;;;36.58;21.56;102776.41;4930076;28;98102;-67
2022/03/20 11:27:13;;;;;;;;;;;;;;;36.45;22.00;102763.88;4936481;28;98534;-73
2022/03/20 11:29:51;;;;;;;;;;;;;;;36.49;22.48;102771.13;4905461;28;126177;-66
2022/03/20 11:32:18;;;;;;;;;;;;;;;36.55;22.98;102760.34;4938142;28;98150;-71
2022/03/20 11:34:45;;;;;;;;;;;;;;;36.68;22.99;102774.88;4937172;28;98651;-72
2022/03/20 11:37:11;;;;;;;;;;;;;;;36.80;23.31;102769.69;4935518;28;106851;-66
2022/03/20 11:40:02;;;;;;;;;;;;;;;36.98;23.70;102757.75;4936917;28;120641;-71
2022/03/20 11:42:28;;;;;;;;;;;;;;;37.19;23.26;102754.22;4936330;28;97922;-66
2022/03/20 11:45:00;;;;;;;;;;;;;;;37.27;23.62;102756.63;4921125;28;128829;-66
2022/03/20 11:47:33;;;;;;;;;;;;;;;37.38;23.66;102756.66;4943992;28;98701;-71
2022/03/20 11:50:24;;;;;;;;;;;;;;;37.50;23.68;102755.50;4936348;28;105138;-72
2022/03/20 11:53:03;;;;;;;;;;;;;;;37.56;23.81;102749.06;4938622;28;98150;-64
2022/03/20 11:55:40;;;;;;;;;;;;;;;37.61;24.22;102747.88;4935140;28;98750;-64
2022/03/20 11:58:22;;;;;;;;;;;;;;;37.64;24.22;102738.63;4937262;28;98351;-66
2022/03/20 12:01:05;;;;;;;;;;;;;;;37.59;24.24;102736.22;4923468;28;98169;-66
2022/03/20 12:03:49;;;;;;;;;;;;;;;37.53;24.56;102730.22;4934226;28;98079;-71
2022/03/20 12:06:24;;;;;;;;;;;;;;;37.47;24.52;102734.63;4936607;28;98518;-66
2022/03/20 12:09:07;;;;;;;;;;;;;;;37.37;24.44;102726.94;4935920;28;98546;-67
2022/03/20 12:12:09;;;;;;;;;;;;;;;37.22;25.03;102717.69;4933918;28;125249;-68
2022/03/20 12:14:41;;;;;;;;;;;;;;;37.07;24.61;102721.66;4937726;28;97864;-66
2022/03/20 12:17:07;;;;;;;;;;;;;;;36.83;24.81;102720.38;4932927;28;101799;-66
2022/03/20 12:19:44;;;;;;;;;;;;;;;36.64;25.05;102712.25;4917109;28;128163;-66
2022/03/20 12:22:29;;;;;;;;;;;;;;;36.46;25.09;102717.78;4937112;28;98158;-72
2022/03/20 12:24:57;;;;;;;;;;;;;;;36.25;25.13;102724.84;4937784;28;98099;-65
2022/03/20 12:27:23;;;;;;;;;;;;;;;36.02;24.82;102722.28;4936126;28;98879;-66
2022/03/20 12:29:50;;;;;;;;;;;;;;;35.77;25.13;102724.09;4937275;28;98346;-72
2022/03/20 12:32:16;;;;;;;;;;;;;;;35.46;25.26;102717.78;4936993;28;98603;-71
2022/03/20 12:34:43;;;;;;;;;;;;;;;35.15;25.44;102708.66;4937679;28;98046;-67
2022/03/20 12:37:34;;;;;;;;;;;;;;;34.89;25.26;102714.31;4937001;28;98093;-66
2022/03/20 12:40:03;;;;;;;;;;;;;;;34.54;25.49;102714.66;4940007;28;98081;-72
2022/03/20 12:42:31;;;;;;;;;;;;;;;34.24;25.65;102706.25;4940526;28;103200;-72
2022/03/20 12:44:56;;;;;;;;;;;;;;;33.91;25.28;102705.69;4939848;28;97986;-71
2022/03/20 12:47:25;;;;;;;;;;;;;;;33.58;25.32;102703.56;4940112;28;125589;-71
2022/03/20 12:49:53;;;;;;;;;;;;;;;33.28;25.51;102697.78;4930962;28;98177;-65
2022/03/20 12:52:19;;;;;;;;;;;;;;;33.00;25.67;102686.88;4929690;28;125548;-72
2022/03/20 12:54:58;;;;;;;;;;;;;;;32.76;25.26;102687.97;4931983;28;115569;-72
2022/03/20 12:57:44;;;;;;;;;;;;;;;32.44;25.27;102688.09;4940254;28;109130;-71
2022/03/20 13:00:18;;;;;;;;;;;;;;;32.15;25.31;102675.47;4940764;28;126353;-71
2022/03/20 13:03:07;;;;;;;;;;;;;;;31.96;25.19;102675.41;4941314;28;101721;-66
2022/03/20 13:05:49;;;;;;;;;;;;;;;31.68;25.24;102687.44;4941479;28;98152;-65
2022/03/20 13:08:26;;;;;;;;;;;;;;;31.42;25.24;102676.03;4925420;28;112972;-65
2022/03/20 13:10:55;;;;;;;;;;;;;;;31.18;25.48;102671.38;4938880;28;127060;-70